Time;durP1;ratioP1;P1;durP2;ratioP2;P2;SDS_P1;SDS_P2;PMS_P1;PMS_P2;Temp;Humidity;BMP_temperature;BMP_pressure;BME280_temperature;BME280_humidity;BME280_pressure;Samples;Min_cycle;Max_cycle;Signal;HPM_P1;HPM_P2
2022/10/30 00:00:55;;;;;;;;;;;16.70;93.70;;;;;;4985032;28;20377;-66
2022/10/30 00:03:20;;;;;;;;;;;16.70;93.80;;;;;;4985611;28;19940;-66
2022/10/30 00:05:47;;;;;;;;;;;16.70;93.90;;;;;;4984903;28;19914;-66
2022/10/30 00:08:13;;;;;;;;;;;16.60;93.80;;;;;;4985197;28;20536;-66
2022/10/30 00:10:39;;;;;;;;;;;16.70;93.70;;;;;;4983911;28;20300;-66
2022/10/30 00:13:05;;;;;;;;;;;16.60;93.80;;;;;;4985799;28;19930;-66
2022/10/30 00:15:31;;;;;;;;;;;16.60;93.70;;;;;;4985320;28;20542;-66
2022/10/30 00:17:56;;;;;;;;;;;16.60;93.80;;;;;;4985701;28;19910;-66
2022/10/30 00:20:22;;;;;;;;;;;16.60;93.80;;;;;;4981512;28;19921;-66
2022/10/30 00:22:47;;;;;;;;;;;16.60;93.90;;;;;;4980251;28;19996;-65
2022/10/30 00:25:13;;;;;;;;;;;16.60;93.90;;;;;;4984147;28;19968;-66
2022/10/30 00:27:38;;;;;;;;;;;16.50;93.70;;;;;;4984569;28;19944;-66
2022/10/30 00:30:04;;;;;;;;;;;16.60;93.80;;;;;;4985134;28;19918;-66
2022/10/30 00:32:30;;;;;;;;;;;16.60;93.90;;;;;;4985133;28;20022;-66
2022/10/30 00:34:55;;;;;;;;;;;16.60;93.80;;;;;;4985809;28;19913;-66
2022/10/30 00:37:21;;;;;;;;;;;16.50;94.00;;;;;;4984302;28;19914;-66
2022/10/30 00:39:46;;;;;;;;;;;16.50;94.10;;;;;;4985078;28;20072;-66
2022/10/30 00:42:12;;;;;;;;;;;16.50;94.10;;;;;;4984935;28;19988;-66
2022/10/30 00:44:46;;;;;;;;;;;16.50;94.00;;;;;;4985181;28;19918;-66
2022/10/30 00:47:15;;;;;;;;;;;16.50;93.90;;;;;;4985813;28;19914;-66
2022/10/30 00:49:50;;;;;;;;;;;16.50;94.00;;;;;;4985231;28;19961;-66
2022/10/30 00:52:16;;;;;;;;;;;16.50;94.10;;;;;;4985121;28;19914;-66
2022/10/30 00:54:41;;;;;;;;;;;16.50;94.10;;;;;;4983656;28;20365;-66
2022/10/30 00:57:08;;;;;;;;;;;16.50;94.20;;;;;;4985221;28;19921;-66
2022/10/30 00:59:35;;;;;;;;;;;16.40;94.20;;;;;;4987923;28;19920;-66
2022/10/30 01:02:01;;;;;;;;;;;16.50;94.20;;;;;;4988712;28;20004;-66
2022/10/30 01:04:27;;;;;;;;;;;16.40;94.10;;;;;;4988829;28;19925;-66
2022/10/30 01:06:53;;;;;;;;;;;16.40;94.10;;;;;;4989060;28;19913;-67
2022/10/30 01:09:19;;;;;;;;;;;16.40;94.20;;;;;;4988922;28;20271;-66
2022/10/30 01:11:44;;;;;;;;;;;16.40;94.20;;;;;;4987729;28;19925;-66
2022/10/30 01:14:11;;;;;;;;;;;16.40;94.30;;;;;;4988181;28;19937;-66
2022/10/30 01:16:55;;;;;;;;;;;16.40;94.20;;;;;;4988462;28;19957;-66
2022/10/30 01:19:21;;;;;;;;;;;16.40;94.40;;;;;;4977568;28;19917;-66
2022/10/30 01:21:58;;;;;;;;;;;16.30;94.30;;;;;;4989183;28;20675;-66
2022/10/30 01:24:33;;;;;;;;;;;16.30;94.30;;;;;;4988798;28;19914;-66
2022/10/30 01:27:10;;;;;;;;;;;16.30;94.20;;;;;;4988255;28;19918;-66
2022/10/30 01:29:47;;;;;;;;;;;16.30;94.40;;;;;;4987971;28;19921;-66
2022/10/30 01:32:13;;;;;;;;;;;16.30;94.50;;;;;;4986699;28;19964;-66
2022/10/30 01:34:47;;;;;;;;;;;16.30;94.60;;;;;;4988247;28;19965;-66
2022/10/30 01:37:16;;;;;;;;;;;16.20;94.50;;;;;;4988960;28;19949;-66
2022/10/30 01:39:42;;;;;;;;;;;16.20;94.50;;;;;;4987693;28;20330;-66
2022/10/30 01:42:26;;;;;;;;;;;16.20;94.50;;;;;;4987287;28;19916;-66
2022/10/30 01:44:52;;;;;;;;;;;16.20;94.60;;;;;;4986059;28;19910;-66
2022/10/30 01:47:26;;;;;;;;;;;16.20;94.70;;;;;;4985727;28;19914;-66
2022/10/30 01:50:08;;;;;;;;;;;16.10;94.60;;;;;;4987403;28;19924;-66
2022/10/30 01:52:34;;;;;;;;;;;16.10;94.70;;;;;;4986972;28;19917;-66
2022/10/30 01:55:18;;;;;;;;;;;16.10;94.60;;;;;;4988207;28;19964;-66
2022/10/30 01:58:19;;;;;;;;;;;16.10;94.60;;;;;;4988163;28;19920;-66
2022/10/30 02:00:46;;;;;;;;;;;16.10;94.70;;;;;;4975917;28;20803;-66
2022/10/30 02:03:12;;;;;;;;;;;16.10;94.70;;;;;;4971830;28;20427;-66
2022/10/30 02:05:40;;;;;;;;;;;16.10;94.80;;;;;;4966937;28;20322;-66
2022/10/30 02:08:05;;;;;;;;;;;16.00;94.80;;;;;;4981398;28;19922;-66
2022/10/30 02:10:32;;;;;;;;;;;16.00;94.80;;;;;;4985009;28;20000;-66
2022/10/30 02:12:58;;;;;;;;;;;16.00;94.80;;;;;;4987767;28;19916;-66
2022/10/30 02:15:23;;;;;;;;;;;16.00;94.80;;;;;;4985833;28;20358;-66
2022/10/30 02:17:49;;;;;;;;;;;16.00;94.80;;;;;;4987434;28;19985;-66
2022/10/30 02:20:16;;;;;;;;;;;16.00;94.80;;;;;;4985594;28;20060;-66
2022/10/30 02:22:41;;;;;;;;;;;16.00;94.80;;;;;;4987795;28;20644;-66
2022/10/30 02:25:07;;;;;;;;;;;16.00;94.90;;;;;;4987542;28;19976;-66
2022/10/30 02:27:32;;;;;;;;;;;15.90;94.80;;;;;;4987273;28;19957;-66
2022/10/30 02:29:59;;;;;;;;;;;15.90;94.90;;;;;;4987225;28;19916;-66
2022/10/30 02:32:24;;;;;;;;;;;15.90;94.90;;;;;;4986019;28;20671;-66
2022/10/30 02:34:50;;;;;;;;;;;15.90;94.90;;;;;;4987469;28;19913;-66
2022/10/30 02:37:15;;;;;;;;;;;15.80;94.80;;;;;;4987171;28;19959;-66
2022/10/30 02:39:41;;;;;;;;;;;15.90;94.90;;;;;;4986984;28;20319;-66
2022/10/30 02:42:06;;;;;;;;;;;15.90;94.90;;;;;;4987119;28;19976;-66
2022/10/30 02:44:32;;;;;;;;;;;15.80;94.90;;;;;;4987478;28;19914;-66
2022/10/30 02:46:57;;;;;;;;;;;15.90;95.00;;;;;;4987223;28;20259;-66
2022/10/30 02:49:23;;;;;;;;;;;15.80;94.90;;;;;;4984716;28;19917;-66
2022/10/30 02:51:48;;;;;;;;;;;15.80;94.90;;;;;;4987275;28;19929;-66
2022/10/30 02:54:14;;;;;;;;;;;15.80;94.90;;;;;;4986899;28;19918;-66
2022/10/30 02:56:39;;;;;;;;;;;15.80;94.90;;;;;;4986714;28;19924;-66
2022/10/30 02:59:05;;;;;;;;;;;15.80;94.90;;;;;;4987048;28;19921;-66
2022/10/30 03:01:30;;;;;;;;;;;15.70;94.90;;;;;;4986522;28;19914;-66
2022/10/30 03:03:56;;;;;;;;;;;15.70;94.90;;;;;;4986350;28;19913;-66
2022/10/30 03:06:22;;;;;;;;;;;15.70;95.00;;;;;;4986204;28;20382;-66
2022/10/30 03:08:47;;;;;;;;;;;15.70;94.90;;;;;;4986305;28;19933;-66
2022/10/30 03:11:14;;;;;;;;;;;15.70;94.90;;;;;;4985075;28;20535;-66
2022/10/30 03:13:40;;;;;;;;;;;15.70;94.90;;;;;;4985202;28;19918;-66
2022/10/30 03:16:07;;;;;;;;;;;15.70;94.90;;;;;;4986682;28;19910;-66
2022/10/30 03:18:33;;;;;;;;;;;15.70;95.00;;;;;;4986451;28;19969;-66
2022/10/30 03:21:00;;;;;;;;;;;15.70;95.00;;;;;;4985363;28;20332;-66
2022/10/30 03:23:25;;;;;;;;;;;15.60;94.90;;;;;;4985266;28;19913;-67
2022/10/30 03:25:53;;;;;;;;;;;15.60;95.00;;;;;;4985034;28;19910;-66
2022/10/30 03:28:18;;;;;;;;;;;15.60;95.00;;;;;;4986224;28;20426;-66
2022/10/30 03:30:44;;;;;;;;;;;15.60;95.00;;;;;;4985676;28;19983;-66
2022/10/30 03:33:09;;;;;;;;;;;15.60;95.00;;;;;;4986292;28;19924;-66
2022/10/30 03:35:35;;;;;;;;;;;15.60;95.00;;;;;;4985655;28;19976;-66
2022/10/30 03:38:01;;;;;;;;;;;15.60;95.00;;;;;;4983486;28;19976;-66
2022/10/30 03:40:26;;;;;;;;;;;15.60;95.00;;;;;;4985369;28;20004;-66
2022/10/30 03:42:52;;;;;;;;;;;15.50;95.00;;;;;;4997615;28;19913;-66
2022/10/30 03:45:17;;;;;;;;;;;15.60;95.00;;;;;;5004182;28;19937;-66
2022/10/30 03:47:42;;;;;;;;;;;15.50;95.00;;;;;;4988211;28;19917;-66
2022/10/30 03:50:08;;;;;;;;;;;15.50;95.00;;;;;;4985800;28;19920;-66
2022/10/30 03:52:33;;;;;;;;;;;15.50;95.00;;;;;;4984094;28;19968;-66
2022/10/30 03:54:59;;;;;;;;;;;15.50;95.30;;;;;;4985773;28;19914;-66
2022/10/30 03:57:24;;;;;;;;;;;15.50;95.00;;;;;;4985576;28;19918;-66
2022/10/30 03:59:50;;;;;;;;;;;15.50;95.00;;;;;;4985544;28;19996;-66
2022/10/30 04:02:15;;;;;;;;;;;15.50;95.00;;;;;;4988110;28;19913;-66
2022/10/30 04:04:41;;;;;;;;;;;15.50;95.10;;;;;;4997645;28;19929;-66
2022/10/30 04:07:06;;;;;;;;;;;15.50;95.10;;;;;;4985811;28;19918;-66
2022/10/30 04:09:32;;;;;;;;;;;15.50;95.10;;;;;;4985227;28;19921;-66
2022/10/30 04:11:57;;;;;;;;;;;15.40;95.10;;;;;;4986077;28;20628;-66
2022/10/30 04:14:23;;;;;;;;;;;15.50;95.10;;;;;;4985183;28;19964;-66
2022/10/30 04:16:48;;;;;;;;;;;15.40;95.10;;;;;;4986036;28;20020;-66
2022/10/30 04:19:13;;;;;;;;;;;15.40;95.10;;;;;;4985852;28;19926;-66
2022/10/30 04:21:42;;;;;;;;;;;15.40;95.10;;;;;;4985119;28;19925;-66
2022/10/30 04:24:07;;;;;;;;;;;15.40;95.10;;;;;;4985225;28;19914;-66
2022/10/30 04:26:33;;;;;;;;;;;15.40;95.10;;;;;;4984119;28;19913;-66
2022/10/30 04:28:58;;;;;;;;;;;15.40;95.20;;;;;;4985620;28;20528;-66
2022/10/30 04:31:24;;;;;;;;;;;15.30;95.20;;;;;;4985014;28;19918;-66
2022/10/30 04:33:49;;;;;;;;;;;15.30;95.20;;;;;;4990429;28;20498;-66
2022/10/30 04:36:16;;;;;;;;;;;15.30;95.20;;;;;;4991877;28;19917;-66
2022/10/30 04:38:42;;;;;;;;;;;15.30;95.30;;;;;;4990969;28;20382;-66
2022/10/30 04:41:07;;;;;;;;;;;15.30;95.30;;;;;;4990832;28;20016;-66
2022/10/30 04:43:33;;;;;;;;;;;15.20;95.20;;;;;;4990413;28;19928;-66
2022/10/30 04:46:02;;;;;;;;;;;15.20;95.30;;;;;;4991904;28;20000;-66
2022/10/30 04:48:28;;;;;;;;;;;15.30;95.30;;;;;;4991568;28;20027;-66
2022/10/30 04:50:53;;;;;;;;;;;15.20;95.20;;;;;;4990936;28;20527;-66
2022/10/30 04:53:19;;;;;;;;;;;15.20;95.30;;;;;;4990551;28;19917;-66
2022/10/30 04:55:45;;;;;;;;;;;15.20;95.30;;;;;;4991659;28;19917;-66
2022/10/30 04:58:11;;;;;;;;;;;15.20;95.30;;;;;;4991938;28;19909;-66
2022/10/30 05:00:37;;;;;;;;;;;15.10;95.30;;;;;;4991553;28;20624;-66
2022/10/30 05:03:02;;;;;;;;;;;15.10;95.30;;;;;;4992250;28;20033;-66
2022/10/30 05:05:28;;;;;;;;;;;15.20;95.30;;;;;;4991127;28;19921;-66
2022/10/30 05:07:54;;;;;;;;;;;15.20;95.30;;;;;;4990571;28;20302;-66
2022/10/30 05:10:19;;;;;;;;;;;15.10;95.30;;;;;;4991565;28;19922;-66
2022/10/30 05:12:45;;;;;;;;;;;15.10;95.30;;;;;;4989841;28;19918;-66
2022/10/30 05:15:11;;;;;;;;;;;15.10;95.30;;;;;;4991667;28;19921;-66
2022/10/30 05:17:37;;;;;;;;;;;15.10;95.30;;;;;;4991059;28;19919;-66
2022/10/30 05:20:05;;;;;;;;;;;15.10;95.30;;;;;;4990712;28;20415;-67
2022/10/30 05:22:30;;;;;;;;;;;15.10;95.30;;;;;;4990733;28;19921;-66
2022/10/30 05:24:56;;;;;;;;;;;15.10;95.30;;;;;;4991135;28;19921;-66
2022/10/30 05:27:21;;;;;;;;;;;15.00;95.30;;;;;;4998194;28;20670;-66
2022/10/30 05:29:47;;;;;;;;;;;15.00;95.30;;;;;;4993783;28;19929;-66
2022/10/30 05:32:12;;;;;;;;;;;15.00;95.30;;;;;;4989593;28;20004;-66
2022/10/30 05:34:38;;;;;;;;;;;15.00;95.30;;;;;;4989296;28;19910;-66
2022/10/30 05:37:03;;;;;;;;;;;15.00;95.40;;;;;;4987079;28;19921;-66
2022/10/30 05:39:29;;;;;;;;;;;15.00;95.40;;;;;;4989848;28;19968;-66
2022/10/30 05:41:54;;;;;;;;;;;15.00;95.40;;;;;;4990920;28;20252;-66
2022/10/30 05:44:20;;;;;;;;;;;14.90;95.40;;;;;;4988557;28;19917;-66
2022/10/30 05:46:45;;;;;;;;;;;14.90;95.40;;;;;;4987720;28;19921;-66
2022/10/30 05:49:11;;;;;;;;;;;14.90;95.40;;;;;;4988087;28;19953;-66
2022/10/30 05:51:36;;;;;;;;;;;14.90;95.40;;;;;;4987444;28;20612;-66
2022/10/30 05:54:02;;;;;;;;;;;14.90;95.40;;;;;;4988627;28;19914;-66
2022/10/30 05:56:27;;;;;;;;;;;14.90;95.40;;;;;;4987910;28;19914;-66
2022/10/30 05:58:52;;;;;;;;;;;14.90;95.50;;;;;;4988139;28;19952;-66
2022/10/30 06:01:18;;;;;;;;;;;14.80;95.40;;;;;;4987362;28;19918;-66
2022/10/30 06:03:44;;;;;;;;;;;14.80;95.40;;;;;;4987963;28;19921;-66
2022/10/30 06:06:09;;;;;;;;;;;14.80;95.50;;;;;;4987920;28;19914;-66
2022/10/30 06:08:35;;;;;;;;;;;14.80;95.50;;;;;;4987301;28;19917;-66
2022/10/30 06:11:00;;;;;;;;;;;14.80;95.50;;;;;;4987561;28;19922;-66
2022/10/30 06:13:26;;;;;;;;;;;14.80;95.50;;;;;;4987536;28;20032;-66
2022/10/30 06:15:53;;;;;;;;;;;14.80;95.40;;;;;;4987572;28;19956;-66
2022/10/30 06:18:19;;;;;;;;;;;14.80;95.50;;;;;;4987903;28;19972;-66
2022/10/30 06:20:44;;;;;;;;;;;14.80;95.50;;;;;;4987668;28;19953;-66
2022/10/30 06:23:10;;;;;;;;;;;14.80;95.50;;;;;;4987696;28;19964;-66
2022/10/30 06:25:35;;;;;;;;;;;14.80;95.50;;;;;;4986206;28;19910;-65
2022/10/30 06:28:01;;;;;;;;;;;14.70;95.50;;;;;;4987533;28;19979;-66
2022/10/30 06:30:27;;;;;;;;;;;14.70;95.50;;;;;;4986583;28;19913;-66
2022/10/30 06:32:56;;;;;;;;;;;14.70;95.40;;;;;;4986662;28;19932;-66
2022/10/30 06:35:22;;;;;;;;;;;14.70;95.40;;;;;;4987383;28;19929;-66
2022/10/30 06:37:47;;;;;;;;;;;14.70;95.40;;;;;;4987210;28;19914;-66
2022/10/30 06:40:14;;;;;;;;;;;14.70;95.40;;;;;;4987125;28;19968;-66
2022/10/30 06:42:43;;;;;;;;;;;14.70;95.40;;;;;;4970053;28;19914;-66
2022/10/30 06:45:10;;;;;;;;;;;14.70;95.40;;;;;;4986328;28;20000;-66
2022/10/30 06:47:36;;;;;;;;;;;14.70;95.40;;;;;;4986556;28;20625;-66
2022/10/30 06:50:02;;;;;;;;;;;14.70;95.40;;;;;;4986720;28;20017;-66
2022/10/30 06:52:27;;;;;;;;;;;14.70;95.40;;;;;;4987472;28;19914;-66
2022/10/30 06:54:53;;;;;;;;;;;14.70;95.40;;;;;;4986769;28;20494;-66
2022/10/30 06:57:18;;;;;;;;;;;14.60;95.30;;;;;;4986306;28;20084;-66
2022/10/30 06:59:44;;;;;;;;;;;14.60;95.40;;;;;;4985029;28;19925;-66
2022/10/30 07:02:09;;;;;;;;;;;14.70;95.40;;;;;;4986934;28;19921;-66
2022/10/30 07:04:35;;;;;;;;;;;14.60;95.40;;;;;;4986319;28;19997;-66
2022/10/30 07:07:00;;;;;;;;;;;14.60;95.40;;;;;;4985312;28;19918;-66
2022/10/30 07:09:26;;;;;;;;;;;14.60;95.40;;;;;;4986600;28;20503;-66
2022/10/30 07:11:52;;;;;;;;;;;14.60;95.40;;;;;;4986213;28;19914;-66
2022/10/30 07:14:17;;;;;;;;;;;14.60;95.40;;;;;;4986795;28;20012;-66
2022/10/30 07:16:43;;;;;;;;;;;14.60;95.30;;;;;;4986653;28;19910;-66
2022/10/30 07:19:08;;;;;;;;;;;14.60;95.40;;;;;;4986701;28;19914;-66
2022/10/30 07:21:34;;;;;;;;;;;14.60;95.30;;;;;;4986440;28;19917;-66
2022/10/30 07:23:59;;;;;;;;;;;14.70;95.40;;;;;;4986333;28;19918;-66
2022/10/30 07:26:25;;;;;;;;;;;14.60;95.40;;;;;;4985662;28;19920;-66
2022/10/30 07:28:50;;;;;;;;;;;14.70;95.40;;;;;;4983838;28;20061;-66
2022/10/30 07:31:15;;;;;;;;;;;14.60;95.40;;;;;;4985948;28;20020;-66
2022/10/30 07:33:41;;;;;;;;;;;14.60;95.40;;;;;;4985499;28;20546;-66
2022/10/30 07:36:07;;;;;;;;;;;14.60;95.30;;;;;;4985860;28;19968;-66
2022/10/30 07:38:33;;;;;;;;;;;14.70;95.30;;;;;;4983213;28;20415;-66
2022/10/30 07:40:58;;;;;;;;;;;14.60;95.30;;;;;;4985732;28;20629;-66
2022/10/30 07:43:23;;;;;;;;;;;14.70;95.30;;;;;;4985535;28;19918;-66
2022/10/30 07:45:49;;;;;;;;;;;14.60;95.30;;;;;;4986036;28;19918;-66
2022/10/30 07:48:14;;;;;;;;;;;14.60;95.30;;;;;;4984789;28;19991;-66
2022/10/30 07:50:40;;;;;;;;;;;14.70;95.30;;;;;;4985539;28;19953;-66
2022/10/30 07:53:06;;;;;;;;;;;14.70;95.30;;;;;;4986112;28;20409;-66
2022/10/30 07:55:31;;;;;;;;;;;14.70;95.20;;;;;;4986003;28;20538;-66
2022/10/30 07:57:57;;;;;;;;;;;14.70;95.30;;;;;;4986155;28;19937;-66
2022/10/30 08:00:22;;;;;;;;;;;14.70;95.20;;;;;;4974845;28;19929;-66
2022/10/30 08:02:49;;;;;;;;;;;14.70;95.20;;;;;;4985640;28;19940;-66
2022/10/30 08:05:15;;;;;;;;;;;14.70;95.20;;;;;;4986117;28;20379;-66
2022/10/30 08:07:40;;;;;;;;;;;14.70;95.20;;;;;;4985195;28;19928;-66
2022/10/30 08:10:06;;;;;;;;;;;14.70;95.10;;;;;;4985513;28;19929;-66
2022/10/30 08:12:32;;;;;;;;;;;14.70;95.10;;;;;;4985588;28;19932;-66
2022/10/30 08:14:58;;;;;;;;;;;14.70;95.10;;;;;;4985664;28;20432;-66
2022/10/30 08:17:23;;;;;;;;;;;14.70;95.10;;;;;;4985971;28;19993;-66
2022/10/30 08:19:49;;;;;;;;;;;14.70;95.10;;;;;;4983313;28;19914;-66
2022/10/30 08:22:14;;;;;;;;;;;14.70;95.10;;;;;;4985806;28;19918;-66
2022/10/30 08:24:40;;;;;;;;;;;14.70;95.10;;;;;;4985461;28;19914;-66
2022/10/30 08:27:05;;;;;;;;;;;14.80;95.10;;;;;;4984302;28;20360;-66
2022/10/30 08:29:31;;;;;;;;;;;14.80;95.10;;;;;;4982810;28;19925;-66
2022/10/30 08:31:56;;;;;;;;;;;14.80;95.00;;;;;;4983253;28;19914;-66
2022/10/30 08:34:22;;;;;;;;;;;14.80;95.00;;;;;;4984151;28;19913;-66
2022/10/30 08:36:48;;;;;;;;;;;14.80;95.00;;;;;;4984706;28;19921;-67
2022/10/30 08:39:14;;;;;;;;;;;14.80;95.00;;;;;;4984863;28;20391;-66
2022/10/30 08:41:39;;;;;;;;;;;14.80;94.90;;;;;;4984563;28;19921;-66
2022/10/30 08:44:05;;;;;;;;;;;14.80;94.90;;;;;;4983362;28;19910;-66
2022/10/30 08:46:30;;;;;;;;;;;14.90;94.90;;;;;;4983978;28;19921;-67
2022/10/30 08:48:56;;;;;;;;;;;14.90;94.90;;;;;;4983623;28;19940;-66
2022/10/30 08:51:22;;;;;;;;;;;14.90;94.80;;;;;;4982453;28;19925;-66
2022/10/30 08:53:48;;;;;;;;;;;14.90;94.80;;;;;;4984307;28;20041;-67
2022/10/30 08:56:14;;;;;;;;;;;14.90;94.80;;;;;;4982803;28;19917;-66
2022/10/30 08:58:40;;;;;;;;;;;14.90;94.80;;;;;;4985098;28;20378;-66
2022/10/30 09:01:05;;;;;;;;;;;15.00;94.80;;;;;;4984036;28;19921;-66
2022/10/30 09:03:30;;;;;;;;;;;15.00;94.70;;;;;;4984855;28;19914;-66
2022/10/30 09:05:57;;;;;;;;;;;15.00;94.80;;;;;;4984908;28;20279;-66
2022/10/30 09:08:22;;;;;;;;;;;15.00;94.70;;;;;;4984690;28;19918;-67
2022/10/30 09:10:52;;;;;;;;;;;15.00;94.70;;;;;;4983950;28;19929;-66
2022/10/30 09:13:18;;;;;;;;;;;15.00;94.60;;;;;;4985037;28;20000;-66
2022/10/30 09:15:43;;;;;;;;;;;15.10;94.60;;;;;;4984994;28;20005;-66
2022/10/30 09:18:09;;;;;;;;;;;15.10;94.70;;;;;;4984856;28;19918;-66
2022/10/30 09:20:34;;;;;;;;;;;15.10;94.60;;;;;;4987834;28;19968;-66
2022/10/30 09:23:00;;;;;;;;;;;15.10;94.60;;;;;;4988259;28;19968;-66
2022/10/30 09:25:25;;;;;;;;;;;15.10;94.60;;;;;;4988448;28;20480;-66
2022/10/30 09:27:51;;;;;;;;;;;15.20;94.60;;;;;;4986781;28;19913;-66
2022/10/30 09:30:16;;;;;;;;;;;15.20;94.50;;;;;;4984563;28;19996;-66
2022/10/30 09:32:42;;;;;;;;;;;15.20;94.50;;;;;;4988450;28;19914;-66
2022/10/30 09:35:07;;;;;;;;;;;15.20;94.50;;;;;;4986891;28;20391;-66
2022/10/30 09:37:34;;;;;;;;;;;15.30;94.40;;;;;;4988389;28;19918;-66
2022/10/30 09:39:59;;;;;;;;;;;15.30;94.40;;;;;;4983028;28;20603;-67
2022/10/30 09:42:45;;;;;;;;;;;15.30;94.30;;;;;;4996721;28;19914;-66
2022/10/30 09:45:24;;;;;;;;;;;15.30;94.40;;;;;;5006699;28;19920;-66
2022/10/30 09:47:53;;;;;;;;;;;15.40;94.40;;;;;;5007581;28;19921;-67
2022/10/30 09:50:18;;;;;;;;;;;15.40;94.30;;;;;;4998276;28;20385;-66
2022/10/30 09:52:47;;;;;;;;;;;15.40;94.20;;;;;;4987570;28;20000;-66
2022/10/30 09:55:15;;;;;;;;;;;15.50;94.30;;;;;;4987733;28;19921;-66
2022/10/30 09:57:52;;;;;;;;;;;15.50;94.20;;;;;;4987263;28;20262;-66
2022/10/30 10:00:19;;;;;;;;;;;15.50;94.20;;;;;;4987599;28;19913;-66
2022/10/30 10:02:44;;;;;;;;;;;15.50;94.20;;;;;;4987938;28;19917;-66
2022/10/30 10:05:09;;;;;;;;;;;15.60;94.20;;;;;;4987544;28;19972;-66
2022/10/30 10:07:37;;;;;;;;;;;15.60;94.10;;;;;;4987590;28;19921;-66
2022/10/30 10:10:05;;;;;;;;;;;15.60;94.10;;;;;;4987185;28;20338;-66
2022/10/30 10:12:43;;;;;;;;;;;15.70;94.10;;;;;;4987891;28;19917;-66
2022/10/30 10:15:29;;;;;;;;;;;15.70;94.10;;;;;;4987297;28;19920;-66
2022/10/30 10:17:55;;;;;;;;;;;15.80;94.00;;;;;;4994719;28;19945;-66
2022/10/30 10:20:36;;;;;;;;;;;15.80;94.00;;;;;;5006697;28;19944;-66
2022/10/30 10:23:08;;;;;;;;;;;15.80;94.10;;;;;;5005514;28;19937;-66
2022/10/30 10:25:34;;;;;;;;;;;15.90;94.00;;;;;;5000816;28;19949;-66
2022/10/30 10:28:00;;;;;;;;;;;15.90;94.00;;;;;;4987122;28;19925;-66
2022/10/30 10:30:30;;;;;;;;;;;16.00;94.00;;;;;;4986529;28;19913;-66
2022/10/30 10:33:14;;;;;;;;;;;16.00;93.90;;;;;;4987035;28;19921;-66
2022/10/30 10:35:46;;;;;;;;;;;16.00;93.90;;;;;;5002290;28;19988;-66
2022/10/30 10:38:11;;;;;;;;;;;16.10;93.90;;;;;;4987077;28;19914;-66
2022/10/30 10:40:43;;;;;;;;;;;16.10;93.90;;;;;;4986981;28;19941;-66
2022/10/30 10:43:27;;;;;;;;;;;16.20;93.80;;;;;;4986143;28;19918;-67
2022/10/30 10:45:55;;;;;;;;;;;16.20;93.80;;;;;;4986653;28;20001;-66
2022/10/30 10:48:35;;;;;;;;;;;16.20;93.80;;;;;;4990229;28;20610;-66
2022/10/30 10:51:02;;;;;;;;;;;16.30;93.80;;;;;;4989217;28;19969;-66
2022/10/30 10:53:34;;;;;;;;;;;16.30;93.80;;;;;;4986611;28;19936;-66
2022/10/30 10:56:00;;;;;;;;;;;16.40;93.80;;;;;;4986394;28;19997;-66
2022/10/30 10:58:58;;;;;;;;;;;16.40;93.80;;;;;;4987369;28;19920;-66
2022/10/30 11:01:37;;;;;;;;;;;16.50;93.70;;;;;;4984943;28;20021;-67
2022/10/30 11:04:07;;;;;;;;;;;16.50;93.70;;;;;;4987470;28;20660;-66
2022/10/30 11:06:41;;;;;;;;;;;16.60;93.70;;;;;;4986602;28;19920;-66
2022/10/30 11:09:12;;;;;;;;;;;16.60;93.70;;;;;;4972237;28;19929;-67
2022/10/30 11:11:38;;;;;;;;;;;16.70;93.70;;;;;;4985726;28;19917;-67
2022/10/30 11:14:11;;;;;;;;;;;16.70;93.60;;;;;;4986538;28;20422;-66
2022/10/30 11:16:44;;;;;;;;;;;16.80;93.60;;;;;;4986927;28;20454;-66
2022/10/30 11:19:10;;;;;;;;;;;16.80;93.50;;;;;;4986518;28;20332;-66
2022/10/30 11:21:42;;;;;;;;;;;16.80;93.50;;;;;;4985081;28;20004;-66
2022/10/30 11:24:27;;;;;;;;;;;16.90;93.60;;;;;;4986414;28;19918;-66
2022/10/30 11:26:55;;;;;;;;;;;16.90;93.60;;;;;;4985831;28;19945;-66
2022/10/30 11:29:30;;;;;;;;;;;17.00;93.60;;;;;;4984228;28;19918;-66
2022/10/30 11:32:03;;;;;;;;;;;17.00;93.50;;;;;;4965902;28;19914;-66
2022/10/30 11:34:29;;;;;;;;;;;17.10;93.60;;;;;;4964807;28;19914;-67
2022/10/30 11:36:54;;;;;;;;;;;17.10;93.30;;;;;;4969206;28;19992;-66
2022/10/30 11:39:20;;;;;;;;;;;17.20;93.50;;;;;;4968633;28;19914;-66
2022/10/30 11:41:50;;;;;;;;;;;17.30;93.50;;;;;;4982739;28;20460;-66
2022/10/30 11:44:15;;;;;;;;;;;17.30;93.40;;;;;;4982313;28;20531;-66
2022/10/30 11:46:41;;;;;;;;;;;17.30;93.30;;;;;;4981335;28;19917;-66
2022/10/30 11:49:21;;;;;;;;;;;17.40;93.40;;;;;;4992465;28;19969;-66
2022/10/30 11:51:47;;;;;;;;;;;17.40;93.50;;;;;;4965678;28;20284;-66
2022/10/30 11:54:19;;;;;;;;;;;17.50;93.40;;;;;;4965543;28;19921;-66
2022/10/30 11:56:47;;;;;;;;;;;17.50;93.30;;;;;;4973493;28;19929;-66
2022/10/30 11:59:17;;;;;;;;;;;17.50;93.40;;;;;;4985131;28;20012;-66
2022/10/30 12:01:56;;;;;;;;;;;17.60;93.40;;;;;;4984430;28;19914;-66
2022/10/30 12:04:22;;;;;;;;;;;17.60;93.50;;;;;;4985080;28;19909;-67
2022/10/30 12:07:07;;;;;;;;;;;17.70;93.50;;;;;;4983008;28;20450;-67
2022/10/30 12:09:40;;;;;;;;;;;17.70;93.50;;;;;;4997527;28;19948;-66
2022/10/30 12:12:18;;;;;;;;;;;17.80;93.40;;;;;;4994265;28;19917;-67
2022/10/30 12:14:43;;;;;;;;;;;17.80;93.40;;;;;;4992560;28;19914;-67
2022/10/30 12:17:12;;;;;;;;;;;17.90;93.40;;;;;;4994003;28;19936;-66
2022/10/30 12:19:43;;;;;;;;;;;17.90;93.30;;;;;;4989720;28;19913;-66
2022/10/30 12:22:09;;;;;;;;;;;18.00;93.40;;;;;;4985712;28;19976;-66
2022/10/30 12:24:35;;;;;;;;;;;18.00;93.30;;;;;;4984881;28;19957;-66
2022/10/30 12:27:02;;;;;;;;;;;18.10;93.30;;;;;;4985004;28;19954;-66
2022/10/30 12:29:39;;;;;;;;;;;18.10;93.30;;;;;;4984372;28;20331;-66
2022/10/30 12:32:07;;;;;;;;;;;18.20;93.30;;;;;;4989462;28;20601;-66
2022/10/30 12:34:36;;;;;;;;;;;18.20;93.30;;;;;;4993858;28;19914;-66
2022/10/30 12:37:08;;;;;;;;;;;18.20;93.30;;;;;;4985810;28;19968;-66
2022/10/30 12:39:43;;;;;;;;;;;18.30;93.40;;;;;;4982945;28;19914;-67
2022/10/30 12:42:13;;;;;;;;;;;18.30;93.30;;;;;;4999372;28;19910;-67
2022/10/30 12:44:43;;;;;;;;;;;18.30;93.40;;;;;;4984457;28;19959;-66
2022/10/30 12:47:12;;;;;;;;;;;18.30;93.50;;;;;;4984059;28;20000;-67
2022/10/30 12:49:37;;;;;;;;;;;18.40;93.40;;;;;;4984002;28;19922;-66
2022/10/30 12:52:09;;;;;;;;;;;18.40;93.50;;;;;;4983996;28;20008;-66
2022/10/30 12:54:42;;;;;;;;;;;18.40;93.40;;;;;;4986716;28;19924;-66
2022/10/30 12:57:15;;;;;;;;;;;18.40;93.40;;;;;;4986800;28;20059;-66
2022/10/30 12:59:45;;;;;;;;;;;18.40;93.50;;;;;;4985840;28;19965;-66
2022/10/30 13:02:28;;;;;;;;;;;18.40;93.40;;;;;;4988373;28;19914;-66
2022/10/30 13:04:58;;;;;;;;;;;18.40;93.40;;;;;;4987167;28;20583;-67
2022/10/30 13:07:35;;;;;;;;;;;18.50;93.40;;;;;;4987879;28;19914;-66
2022/10/30 13:10:19;;;;;;;;;;;18.50;93.40;;;;;;4987371;28;19921;-66
2022/10/30 13:12:47;;;;;;;;;;;18.50;93.40;;;;;;4988440;28;19918;-66
2022/10/30 13:15:20;;;;;;;;;;;18.50;93.40;;;;;;5001830;28;19962;-66
2022/10/30 13:17:45;;;;;;;;;;;18.50;93.40;;;;;;4995240;28;20008;-66
2022/10/30 13:20:11;;;;;;;;;;;18.60;93.40;;;;;;4987061;28;20020;-67
2022/10/30 13:22:46;;;;;;;;;;;18.60;93.50;;;;;;4994317;28;19913;-66
2022/10/30 13:25:25;;;;;;;;;;;18.60;93.40;;;;;;4994036;28;19916;-67
2022/10/30 13:27:51;;;;;;;;;;;18.60;93.40;;;;;;4987577;28;19909;-66
2022/10/30 13:30:19;;;;;;;;;;;18.60;93.50;;;;;;4986447;28;19991;-66
2022/10/30 13:32:47;;;;;;;;;;;18.70;93.50;;;;;;4987726;28;20879;-66
2022/10/30 13:35:31;;;;;;;;;;;18.70;93.50;;;;;;4987621;28;19914;-66
2022/10/30 13:38:12;;;;;;;;;;;18.70;93.50;;;;;;5002491;28;20614;-67
2022/10/30 13:40:47;;;;;;;;;;;18.70;93.40;;;;;;4986358;28;19925;-66
2022/10/30 13:43:31;;;;;;;;;;;18.70;93.40;;;;;;4989033;28;19918;-66
2022/10/30 13:46:12;;;;;;;;;;;18.70;93.50;;;;;;4988543;28;19914;-66
2022/10/30 13:48:49;;;;;;;;;;;18.70;93.50;;;;;;4998489;28;20364;-66
2022/10/30 13:51:34;;;;;;;;;;;18.70;93.40;;;;;;4998345;28;19917;-66
2022/10/30 13:54:03;;;;;;;;;;;18.80;93.50;;;;;;4986190;28;19921;-66
2022/10/30 13:56:29;;;;;;;;;;;18.70;93.50;;;;;;4986738;28;19921;-66
2022/10/30 13:58:58;;;;;;;;;;;18.80;93.50;;;;;;4988170;28;20024;-66
2022/10/30 14:01:44;;;;;;;;;;;18.80;93.50;;;;;;4987456;28;20310;-66
2022/10/30 14:04:28;;;;;;;;;;;18.80;93.50;;;;;;4986617;28;19914;-66
2022/10/30 14:06:57;;;;;;;;;;;18.80;93.50;;;;;;5000993;28;19953;-66
2022/10/30 14:09:42;;;;;;;;;;;18.80;93.60;;;;;;4987216;28;19922;-66
2022/10/30 14:12:26;;;;;;;;;;;18.80;93.60;;;;;;4987690;28;19997;-66
2022/10/30 14:14:51;;;;;;;;;;;18.70;93.60;;;;;;4987867;28;20526;-66
2022/10/30 14:17:17;;;;;;;;;;;18.80;93.60;;;;;;4987665;28;19921;-66
2022/10/30 14:20:01;;;;;;;;;;;18.80;93.60;;;;;;4987423;28;19921;-66
2022/10/30 14:22:26;;;;;;;;;;;18.80;93.70;;;;;;4987370;28;20008;-66